createdAt,value
2019-05-17T00:00:23.832Z,10.10
2019-05-17T00:02:51.261Z,10.12
2019-05-17T00:05:18.339Z,10.07
2019-05-17T00:07:47.453Z,10.28
2019-05-17T00:10:17.021Z,10.34
2019-05-17T00:12:43.651Z,10.22
2019-05-17T00:15:11.084Z,10.16
2019-05-17T00:17:38.219Z,10.18
2019-05-17T00:20:06.271Z,10.34
2019-05-17T00:22:36.399Z,10.24
2019-05-17T00:25:03.554Z,10.13
2019-05-17T00:27:32.615Z,10.22
2019-05-17T00:29:59.637Z,10.29
2019-05-17T00:32:27.502Z,10.17
2019-05-17T00:34:56.417Z,10.31
2019-05-17T00:37:23.586Z,10.07
2019-05-17T00:39:50.766Z,10.03
2019-05-17T00:42:17.884Z,10.15
2019-05-17T00:44:47.177Z,10.33
2019-05-17T00:47:17.053Z,10.32
2019-05-17T00:49:46.350Z,10.30
2019-05-17T00:52:13.259Z,10.18
2019-05-17T00:54:40.310Z,10.14
2019-05-17T00:57:07.654Z,10.27
2019-05-17T00:59:36.763Z,10.22
2019-05-17T01:02:04.174Z,10.23
2019-05-17T01:04:31.576Z,10.22
2019-05-17T01:06:58.666Z,10.28
2019-05-17T01:09:27.341Z,10.31
2019-05-17T01:11:56.542Z,10.27
2019-05-17T01:14:23.382Z,10.38
2019-05-17T01:16:50.659Z,10.28
2019-05-17T01:19:17.734Z,10.38
2019-05-17T01:21:47.285Z,10.28
2019-05-17T01:24:17.099Z,10.18
2019-05-17T01:26:43.918Z,10.21
2019-05-17T01:29:10.951Z,10.24
2019-05-17T01:31:37.980Z,10.16
2019-05-17T01:34:07.143Z,10.15
2019-05-17T01:36:33.985Z,10.16
2019-05-17T01:39:13.178Z,10.24
2019-05-17T01:41:32.227Z,10.38
2019-05-17T01:43:59.235Z,10.30
2019-05-17T01:46:27.354Z,10.23
2019-05-17T01:48:54.464Z,10.04
2019-05-17T01:51:21.528Z,10.03
2019-05-17T01:53:48.767Z,9.98
2019-05-17T01:56:16.938Z,9.97
2019-05-17T01:58:44.082Z,10.17
2019-05-17T02:01:11.255Z,10.12
2019-05-17T02:03:38.319Z,10.03
2019-05-17T02:06:07.523Z,10.03
2019-05-17T02:08:37.043Z,9.81
2019-05-17T02:11:03.902Z,9.98
2019-05-17T02:13:32.088Z,9.87
2019-05-17T02:15:59.118Z,9.90
2019-05-17T02:18:26.709Z,9.83
2019-05-17T02:20:53.861Z,9.85
2019-05-17T02:23:22.019Z,9.94
2019-05-17T02:25:49.102Z,9.89
2019-05-17T02:28:17.337Z,9.89
2019-05-17T02:30:45.100Z,9.93
2019-05-17T02:33:12.808Z,9.90
2019-05-17T02:35:42.939Z,9.85
2019-05-17T02:38:09.426Z,9.75
2019-05-17T02:40:43.081Z,9.78
2019-05-17T02:43:13.007Z,9.91
2019-05-17T02:45:38.622Z,9.93
2019-05-17T02:48:06.890Z,10.05
2019-05-17T02:50:35.039Z,10.10
2019-05-17T02:53:04.313Z,10.10
2019-05-17T02:55:32.776Z,10.05
2019-05-17T02:58:02.570Z,10.04
2019-05-17T03:00:28.938Z,10.00
2019-05-17T03:02:57.172Z,10.08
2019-05-17T03:05:24.230Z,10.01
2019-05-17T03:07:52.809Z,10.05
2019-05-17T03:10:25.138Z,9.95
2019-05-17T03:12:49.061Z,10.06
2019-05-17T03:15:16.307Z,10.16
2019-05-17T03:17:43.962Z,10.28
2019-05-17T03:20:13.185Z,10.26
2019-05-17T03:22:43.786Z,10.36
2019-05-17T03:25:13.222Z,10.26
2019-05-17T03:27:38.695Z,10.08
2019-05-17T03:30:06.867Z,10.12
2019-05-17T03:32:36.519Z,9.96
2019-05-17T03:35:07.181Z,9.92
2019-05-17T03:37:38.027Z,9.97
2019-05-17T03:40:21.684Z,10.05
2019-05-17T03:42:33.914Z,9.88
2019-05-17T03:45:02.874Z,10.10
2019-05-17T03:47:33.180Z,10.13
2019-05-17T03:49:58.965Z,10.17
2019-05-17T03:52:27.026Z,10.20
2019-05-17T03:54:55.154Z,10.20
2019-05-17T03:57:23.913Z,10.17
2019-05-17T03:59:52.484Z,10.22
2019-05-17T04:02:22.840Z,10.40
2019-05-17T04:04:49.074Z,10.41
2019-05-17T04:07:16.192Z,10.48
2019-05-17T04:09:43.827Z,10.45
2019-05-17T04:12:13.656Z,10.50
2019-05-17T04:14:42.971Z,10.45
2019-05-17T04:17:08.989Z,10.36
2019-05-17T04:19:36.072Z,10.30
2019-05-17T04:22:03.745Z,10.40
2019-05-17T04:24:32.367Z,10.41
2019-05-17T04:27:03.182Z,10.51
2019-05-17T04:29:29.080Z,10.69
2019-05-17T04:31:56.098Z,10.50
2019-05-17T04:34:23.143Z,10.73
2019-05-17T04:36:52.271Z,11.00
2019-05-17T04:39:22.627Z,11.09
2019-05-17T04:41:51.115Z,10.98
2019-05-17T04:44:18.476Z,10.86
2019-05-17T04:46:49.355Z,10.79
2019-05-17T04:49:16.529Z,10.98
2019-05-17T04:51:52.398Z,11.12
2019-05-17T04:54:22.754Z,11.10
2019-05-17T04:56:52.880Z,11.00
2019-05-17T04:59:23.992Z,11.15
2019-05-17T05:01:49.754Z,11.37
2019-05-17T05:04:16.850Z,11.53
2019-05-17T05:06:45.755Z,11.13
2019-05-17T05:09:13.004Z,11.15
2019-05-17T05:11:55.649Z,11.13
2019-05-17T05:14:09.298Z,11.34
2019-05-17T05:16:36.366Z,11.38
2019-05-17T05:19:03.514Z,11.43
2019-05-17T05:21:32.317Z,11.52
2019-05-17T05:23:59.682Z,11.37
2019-05-17T05:26:28.549Z,11.29
2019-05-17T05:28:55.608Z,11.27
2019-05-17T05:31:25.781Z,11.26
2019-05-17T05:33:56.966Z,11.30
2019-05-17T05:36:24.044Z,11.70
2019-05-17T05:38:51.581Z,11.43
2019-05-17T05:41:18.815Z,11.54
2019-05-17T05:43:45.886Z,11.62
2019-05-17T05:46:14.748Z,11.80
2019-05-17T05:48:41.818Z,11.89
2019-05-17T05:51:13.414Z,11.66
2019-05-17T05:53:52.166Z,11.42
2019-05-17T05:56:43.862Z,11.68
2019-05-17T05:59:12.306Z,11.71
2019-05-17T06:01:42.145Z,11.76
2019-05-17T06:04:11.608Z,11.97
2019-05-17T06:06:38.537Z,12.13
2019-05-17T06:09:11.841Z,12.17
2019-05-17T06:11:38.653Z,12.04
2019-05-17T06:14:05.707Z,11.91
2019-05-17T06:16:32.756Z,11.54
2019-05-17T06:19:02.387Z,11.57
2019-05-17T06:21:31.799Z,11.53
2019-05-17T06:23:58.524Z,11.55
2019-05-17T06:26:25.576Z,11.78
2019-05-17T06:28:52.743Z,11.70
2019-05-17T06:31:20.065Z,11.91
2019-05-17T06:33:47.114Z,12.01
2019-05-17T06:36:14.200Z,11.97
2019-05-17T06:38:42.030Z,12.30
2019-05-17T06:41:09.223Z,12.17
2019-05-17T06:43:38.474Z,12.23
2019-05-17T06:46:05.296Z,12.15
2019-05-17T06:48:32.395Z,12.15
2019-05-17T06:50:59.424Z,12.18
2019-05-17T06:53:28.786Z,12.22
2019-05-17T06:55:55.874Z,12.19
2019-05-17T06:58:22.959Z,12.28
2019-05-17T07:00:50.025Z,12.54
2019-05-17T07:03:17.108Z,12.41
2019-05-17T07:05:46.268Z,12.65
2019-05-17T07:08:15.357Z,12.74
2019-05-17T07:10:42.456Z,12.73
2019-05-17T07:13:10.603Z,13.08
2019-05-17T07:15:46.916Z,13.10
2019-05-17T07:18:10.029Z,13.41
2019-05-17T07:20:36.455Z,13.26
2019-05-17T07:23:04.748Z,13.16
2019-05-17T07:25:33.183Z,13.17
2019-05-17T07:28:00.583Z,13.18
2019-05-17T07:30:30.413Z,13.06
2019-05-17T07:33:00.401Z,13.37
2019-05-17T07:35:29.895Z,13.20
2019-05-17T07:37:59.383Z,13.49
2019-05-17T07:40:26.152Z,13.75
2019-05-17T07:43:06.916Z,14.29
2019-05-17T07:45:24.089Z,13.91
2019-05-17T07:47:54.162Z,14.15
2019-05-17T07:50:21.598Z,14.51
2019-05-17T07:52:52.881Z,14.55
2019-05-17T07:55:22.844Z,14.56
2019-05-17T07:57:50.216Z,15.26
2019-05-17T08:00:20.109Z,15.68
2019-05-17T08:02:50.329Z,15.99
2019-05-17T08:05:16.924Z,16.48
2019-05-17T08:07:44.408Z,17.46
2019-05-17T08:10:11.759Z,17.19
2019-05-17T08:12:40.517Z,16.97
2019-05-17T08:15:10.703Z,17.70
2019-05-17T08:17:39.723Z,17.72
2019-05-17T08:20:09.872Z,18.41
2019-05-17T08:22:36.484Z,17.35
2019-05-17T08:25:04.891Z,17.41
2019-05-17T08:27:31.919Z,18.03
2019-05-17T08:29:59.604Z,18.08
2019-05-17T08:32:32.914Z,17.92
2019-05-17T08:35:00.573Z,17.88
2019-05-17T08:37:30.200Z,18.97
2019-05-17T08:39:57.030Z,19.59
2019-05-17T08:42:24.180Z,19.71
2019-05-17T08:44:51.246Z,17.93
2019-05-17T08:47:20.913Z,19.53
2019-05-17T08:49:49.675Z,20.18
2019-05-17T08:52:17.003Z,19.94
2019-05-17T08:54:44.369Z,18.84
2019-05-17T08:57:11.792Z,19.79
2019-05-17T08:59:40.456Z,18.43
2019-05-17T09:02:10.905Z,19.25
2019-05-17T09:04:40.352Z,20.32
2019-05-17T09:07:09.357Z,20.04
2019-05-17T09:09:36.303Z,19.11
2019-05-17T09:12:03.644Z,19.67
2019-05-17T09:14:30.744Z,18.96
2019-05-17T09:17:00.425Z,19.43
2019-05-17T09:19:27.202Z,19.20
2019-05-17T09:21:55.142Z,19.55
2019-05-17T09:24:24.592Z,19.22
2019-05-17T09:26:51.654Z,19.20
2019-05-17T09:29:20.073Z,19.68
2019-05-17T09:31:51.870Z,19.41
2019-05-17T09:34:21.446Z,19.29
2019-05-17T09:36:49.677Z,18.83
2019-05-17T09:39:17.094Z,19.97
2019-05-17T09:41:44.147Z,17.91
2019-05-17T09:44:15.793Z,18.75
2019-05-17T09:46:40.208Z,19.34
2019-05-17T09:49:10.183Z,20.65
2019-05-17T09:51:39.611Z,20.75
2019-05-17T09:54:07.069Z,19.86
2019-05-17T09:56:34.182Z,19.54
2019-05-17T09:59:01.244Z,19.73
2019-05-17T10:01:30.318Z,20.55
2019-05-17T10:03:59.720Z,20.57
2019-05-17T10:06:26.829Z,20.01
2019-05-17T10:08:55.259Z,19.16
2019-05-17T10:11:22.386Z,19.28
2019-05-17T10:13:50.008Z,19.27
2019-05-17T10:16:20.307Z,20.12
2019-05-17T10:18:47.594Z,20.29
2019-05-17T10:21:15.809Z,21.40
2019-05-17T10:23:42.991Z,21.93
2019-05-17T10:26:10.397Z,21.21
2019-05-17T10:28:39.989Z,20.59
2019-05-17T10:31:10.763Z,21.14
2019-05-17T10:33:36.462Z,21.36
2019-05-17T10:36:03.539Z,20.46
2019-05-17T10:38:31.721Z,20.39
2019-05-17T10:40:58.747Z,21.03
2019-05-17T10:43:25.827Z,22.45
2019-05-17T10:45:54.105Z,22.75
2019-05-17T10:48:21.377Z,22.90
2019-05-17T10:50:49.638Z,22.94
2019-05-17T10:53:17.079Z,23.00
2019-05-17T10:55:44.496Z,23.58
2019-05-17T10:58:11.565Z,22.91
2019-05-17T11:00:41.360Z,22.41
2019-05-17T11:03:09.789Z,20.76
2019-05-17T11:05:40.278Z,21.25
2019-05-17T11:08:07.476Z,21.28
2019-05-17T11:10:34.554Z,22.43
2019-05-17T11:13:01.750Z,22.87
2019-05-17T11:15:31.057Z,24.33
2019-05-17T11:17:58.297Z,24.82
2019-05-17T11:20:25.807Z,26.30
2019-05-17T11:22:53.030Z,27.42
2019-05-17T11:25:20.209Z,27.17
2019-05-17T11:27:47.356Z,26.00
2019-05-17T11:30:15.188Z,21.78
2019-05-17T11:32:42.493Z,20.77
2019-05-17T11:35:09.903Z,20.53
2019-05-17T11:37:36.931Z,20.70
2019-05-17T11:40:08.033Z,21.89
2019-05-17T11:42:33.775Z,23.94
2019-05-17T11:45:01.372Z,25.84
2019-05-17T11:47:28.543Z,27.07
2019-05-17T11:49:57.262Z,27.39
2019-05-17T11:52:27.053Z,26.22
2019-05-17T11:54:56.777Z,26.59
2019-05-17T11:57:25.080Z,27.52
2019-05-17T11:59:52.108Z,26.48
2019-05-17T12:02:21.457Z,27.34
2019-05-17T12:04:48.125Z,28.25
2019-05-17T12:07:16.406Z,26.87
2019-05-17T12:09:43.544Z,22.95
2019-05-17T12:12:10.656Z,20.90
2019-05-17T12:14:39.609Z,22.08
2019-05-17T12:17:06.653Z,25.17
2019-05-17T12:19:36.933Z,25.58
2019-05-17T12:22:03.147Z,25.64
2019-05-17T12:24:30.590Z,23.32
2019-05-17T12:26:57.662Z,23.73
2019-05-17T12:29:26.525Z,22.83
2019-05-17T12:31:53.648Z,21.46
2019-05-17T12:34:20.750Z,20.84
2019-05-17T12:36:48.038Z,20.40
2019-05-17T12:39:16.973Z,20.42
2019-05-17T12:41:44.133Z,24.61
2019-05-17T12:44:11.168Z,26.71
2019-05-17T12:46:38.258Z,27.90
2019-05-17T12:49:05.386Z,26.02
2019-05-17T12:51:33.101Z,26.89
2019-05-17T12:54:00.446Z,24.90
2019-05-17T12:56:27.612Z,23.19
2019-05-17T12:58:54.677Z,23.09
2019-05-17T13:01:21.899Z,24.53
2019-05-17T13:03:49.028Z,25.03
2019-05-17T13:06:16.111Z,27.72
2019-05-17T13:08:43.221Z,29.71
2019-05-17T13:11:10.308Z,31.37
2019-05-17T13:13:37.597Z,30.50
2019-05-17T13:16:17.446Z,31.06
2019-05-17T13:18:33.948Z,29.88
2019-05-17T13:21:01.020Z,28.92
2019-05-17T13:23:28.116Z,29.83
2019-05-17T13:26:03.003Z,31.97
2019-05-17T13:28:42.316Z,27.62
2019-05-17T13:31:12.287Z,25.87
2019-05-17T13:33:39.507Z,25.35
2019-05-17T13:36:06.582Z,22.95
2019-05-17T13:38:33.711Z,22.35
2019-05-17T13:41:00.728Z,24.68
2019-05-17T13:43:27.946Z,28.37
2019-05-17T13:45:55.011Z,31.34
2019-05-17T13:48:22.251Z,31.40
2019-05-17T13:50:52.111Z,30.85
2019-05-17T13:53:18.656Z,30.85
2019-05-17T13:55:45.911Z,32.45
2019-05-17T13:58:13.103Z,31.88
2019-05-17T14:00:42.037Z,29.57
2019-05-17T14:03:10.277Z,26.39
2019-05-17T14:05:37.483Z,23.38
2019-05-17T14:08:06.718Z,21.86
2019-05-17T14:10:33.911Z,21.72
2019-05-17T14:13:01.108Z,22.11
2019-05-17T14:15:29.455Z,23.93
2019-05-17T14:17:57.698Z,27.61
2019-05-17T14:20:25.138Z,29.11
2019-05-17T14:22:52.454Z,29.33
2019-05-17T14:25:22.235Z,29.57
2019-05-17T14:27:49.313Z,25.88
2019-05-17T14:30:16.626Z,24.72
2019-05-17T14:32:45.951Z,25.29
2019-05-17T14:35:15.173Z,23.97
2019-05-17T14:37:42.365Z,22.82
2019-05-17T14:40:12.994Z,23.24
2019-05-17T14:42:41.931Z,26.85
2019-05-17T14:45:09.087Z,28.29
2019-05-17T14:47:38.872Z,26.25
2019-05-17T14:50:09.115Z,24.57
2019-05-17T14:52:36.357Z,24.07
2019-05-17T14:55:03.881Z,24.77
2019-05-17T14:57:31.274Z,25.35
2019-05-17T14:59:58.368Z,24.61
2019-05-17T15:02:27.558Z,24.08
2019-05-17T15:05:00.170Z,23.53
2019-05-17T15:07:39.012Z,23.94
2019-05-17T15:10:08.921Z,23.35
2019-05-17T15:12:36.164Z,22.85
2019-05-17T15:15:03.918Z,25.08
2019-05-17T15:17:34.903Z,29.21
2019-05-17T15:20:00.188Z,29.36
2019-05-17T15:22:28.373Z,31.16
2019-05-17T15:24:55.467Z,31.94
2019-05-17T15:27:24.421Z,32.52
2019-05-17T15:29:51.629Z,34.10
2019-05-17T15:32:19.448Z,34.38
2019-05-17T15:34:51.701Z,34.79
2019-05-17T15:37:19.239Z,34.01
2019-05-17T15:39:46.619Z,35.35
2019-05-17T15:42:14.164Z,32.51
2019-05-17T15:44:41.374Z,30.80
2019-05-17T15:47:08.404Z,26.10
2019-05-17T15:49:35.462Z,29.39
2019-05-17T15:52:02.692Z,32.66
2019-05-17T15:54:29.985Z,31.39
2019-05-17T15:56:57.088Z,28.75
2019-05-17T15:59:24.196Z,28.00
2019-05-17T16:01:51.347Z,28.34
2019-05-17T16:04:18.566Z,30.03
2019-05-17T16:06:45.785Z,30.16
2019-05-17T16:09:12.851Z,28.06
2019-05-17T16:11:42.728Z,25.63
2019-05-17T16:14:10.189Z,24.17
2019-05-17T16:16:37.278Z,25.18
2019-05-17T16:19:04.367Z,26.96
2019-05-17T16:21:31.415Z,26.43
2019-05-17T16:23:58.493Z,26.25
2019-05-17T16:26:25.612Z,25.70
2019-05-17T16:28:52.797Z,29.02
2019-05-17T16:31:20.309Z,29.13
2019-05-17T16:33:50.983Z,28.91
2019-05-17T16:36:18.475Z,26.82
2019-05-17T16:38:45.603Z,25.83
2019-05-17T16:41:14.155Z,25.68
2019-05-17T16:43:41.328Z,26.63
2019-05-17T16:46:10.776Z,29.17
2019-05-17T16:48:37.936Z,29.29
2019-05-17T16:51:07.429Z,27.54
2019-05-17T16:53:34.549Z,27.63
2019-05-17T16:56:01.624Z,27.17
2019-05-17T16:58:31.073Z,27.35
2019-05-17T17:01:03.475Z,27.20
2019-05-17T17:03:43.295Z,27.23
2019-05-17T17:05:58.362Z,27.33
2019-05-17T17:08:25.492Z,26.56
2019-05-17T17:10:52.595Z,25.10
2019-05-17T17:13:32.756Z,24.08
2019-05-17T17:15:53.792Z,23.10
2019-05-17T17:18:22.483Z,23.97
2019-05-17T17:20:53.885Z,23.97
2019-05-17T17:23:28.037Z,23.22
2019-05-17T17:25:55.330Z,23.01
2019-05-17T17:28:25.919Z,23.12
2019-05-17T17:30:53.431Z,23.04
2019-05-17T17:33:20.577Z,23.61
2019-05-17T17:35:48.206Z,24.57
2019-05-17T17:38:18.433Z,23.91
2019-05-17T17:40:47.553Z,24.82
2019-05-17T17:43:16.219Z,24.14
2019-05-17T17:45:50.275Z,23.36
2019-05-17T17:48:19.766Z,23.21
2019-05-17T17:50:49.073Z,23.82
2019-05-17T17:53:20.142Z,24.35
2019-05-17T17:55:48.568Z,23.70
2019-05-17T17:58:57.011Z,23.75
2019-05-17T18:01:57.041Z,23.67
2019-05-17T18:04:28.450Z,23.54
2019-05-17T18:07:03.318Z,22.84
2019-05-17T18:09:33.452Z,22.79
2019-05-17T18:12:05.872Z,23.01
2019-05-17T18:14:38.006Z,22.55
2019-05-17T18:17:11.971Z,22.69
2019-05-17T18:19:44.609Z,22.07
2019-05-17T18:22:16.925Z,21.42
2019-05-17T18:24:46.742Z,20.78
2019-05-17T18:27:18.638Z,20.67
2019-05-17T18:29:49.470Z,20.75
2019-05-17T18:32:21.447Z,20.76
2019-05-17T18:34:54.316Z,20.57
2019-05-17T18:37:27.676Z,20.19
2019-05-17T18:40:03.203Z,20.06
2019-05-17T18:42:33.024Z,20.04
2019-05-17T18:45:08.839Z,19.84
2019-05-17T18:47:36.696Z,19.57
2019-05-17T18:50:10.695Z,19.43
2019-05-17T18:52:44.226Z,19.22
2019-05-17T18:55:14.812Z,18.97
2019-05-17T18:57:57.127Z,18.78
2019-05-17T19:00:25.784Z,18.71
2019-05-17T19:03:04.886Z,18.60
2019-05-17T19:05:40.456Z,18.53
2019-05-17T19:08:09.690Z,18.36
2019-05-17T19:10:40.960Z,18.25
2019-05-17T19:13:11.180Z,18.04
2019-05-17T19:15:41.589Z,18.05
2019-05-17T19:18:26.054Z,18.03
2019-05-17T19:20:56.507Z,17.87
2019-05-17T19:23:26.011Z,17.72
2019-05-17T19:25:56.051Z,17.76
2019-05-17T19:28:23.742Z,17.65
2019-05-17T19:30:54.007Z,17.53
2019-05-17T19:33:22.505Z,17.44
2019-05-17T19:35:56.754Z,17.33
2019-05-17T19:38:25.199Z,17.25
2019-05-17T19:41:02.699Z,17.17
2019-05-17T19:43:31.927Z,17.09
2019-05-17T19:46:15.973Z,16.95
2019-05-17T19:48:43.211Z,16.91
2019-05-17T19:51:10.574Z,17.07
2019-05-17T19:53:37.772Z,17.15
2019-05-17T19:56:07.863Z,17.04
2019-05-17T19:58:41.267Z,16.89
2019-05-17T20:01:08.663Z,16.94
2019-05-17T20:03:38.174Z,16.91
2019-05-17T20:06:05.562Z,16.84
2019-05-17T20:08:35.497Z,16.80
2019-05-17T20:11:02.850Z,16.69
2019-05-17T20:13:32.194Z,16.50
2019-05-17T20:16:01.523Z,16.49
2019-05-17T20:18:29.988Z,16.48
2019-05-17T20:20:58.264Z,16.47
2019-05-17T20:23:25.465Z,16.51
2019-05-17T20:25:52.643Z,16.63
2019-05-17T20:28:28.021Z,16.64
2019-05-17T20:31:13.709Z,16.81
2019-05-17T20:33:59.060Z,16.89
2019-05-17T20:36:42.757Z,16.93
2019-05-17T20:39:22.402Z,16.87
2019-05-17T20:42:14.007Z,16.73
2019-05-17T20:45:52.596Z,16.70
2019-05-17T20:48:30.064Z,16.69
2019-05-17T20:50:57.620Z,16.76
2019-05-17T20:53:25.834Z,16.73
2019-05-17T20:55:52.975Z,16.63
2019-05-17T20:58:20.151Z,16.58
2019-05-17T21:00:47.223Z,16.53
2019-05-17T21:03:16.819Z,16.56
2019-05-17T21:05:43.895Z,16.52
2019-05-17T21:08:13.514Z,16.41
2019-05-17T21:10:40.651Z,16.35
2019-05-17T21:13:09.100Z,16.38
2019-05-17T21:15:47.386Z,16.39
2019-05-17T21:18:09.752Z,16.46
2019-05-17T21:20:38.747Z,16.41
2019-05-17T21:23:06.045Z,16.39
2019-05-17T21:25:35.028Z,16.30
2019-05-17T21:28:05.476Z,16.37
2019-05-17T21:30:32.632Z,16.55
2019-05-17T21:33:01.801Z,16.50
2019-05-17T21:35:28.891Z,16.40
2019-05-17T21:37:56.025Z,16.33
2019-05-17T21:40:23.325Z,16.14
2019-05-17T21:42:50.411Z,16.16
2019-05-17T21:45:17.866Z,15.91
2019-05-17T21:47:45.254Z,15.78
2019-05-17T21:50:12.579Z,15.64
2019-05-17T21:52:39.706Z,15.59
2019-05-17T21:55:07.424Z,15.70
2019-05-17T21:57:34.468Z,15.56
2019-05-17T22:00:03.727Z,15.33
2019-05-17T22:02:32.727Z,15.12
2019-05-17T22:05:02.269Z,14.96
2019-05-17T22:07:29.380Z,14.78
2019-05-17T22:09:56.572Z,14.76
2019-05-17T22:12:23.669Z,14.59
2019-05-17T22:14:50.846Z,14.47
2019-05-17T22:17:19.912Z,14.41
2019-05-17T22:19:49.343Z,14.33
2019-05-17T22:22:16.795Z,14.50
2019-05-17T22:24:46.539Z,14.55
2019-05-17T22:27:15.487Z,14.58
2019-05-17T22:29:42.627Z,14.50
2019-05-17T22:32:09.783Z,14.40
2019-05-17T22:34:36.946Z,14.21
2019-05-17T22:37:04.316Z,14.28
2019-05-17T22:39:31.441Z,14.22
2019-05-17T22:41:58.586Z,14.05
2019-05-17T22:44:25.669Z,14.01
2019-05-17T22:46:52.758Z,14.05
2019-05-17T22:49:19.844Z,13.79
2019-05-17T22:51:47.056Z,13.66
2019-05-17T22:54:14.106Z,13.80
2019-05-17T22:56:41.208Z,13.67
2019-05-17T22:59:08.313Z,13.54
2019-05-17T23:01:35.783Z,13.60
2019-05-17T23:04:02.892Z,13.77
2019-05-17T23:06:30.112Z,13.68
2019-05-17T23:08:57.224Z,13.74
2019-05-17T23:11:24.520Z,13.73
2019-05-17T23:13:51.924Z,13.60
2019-05-17T23:16:20.317Z,13.56
2019-05-17T23:19:09.032Z,13.55
2019-05-17T23:21:38.409Z,13.45
2019-05-17T23:24:06.144Z,13.17
2019-05-17T23:26:33.350Z,12.59
2019-05-17T23:29:00.856Z,12.38
2019-05-17T23:31:27.945Z,12.60
2019-05-17T23:33:55.027Z,12.60
2019-05-17T23:36:22.115Z,12.85
2019-05-17T23:38:49.187Z,12.93
2019-05-17T23:41:16.250Z,12.91
2019-05-17T23:43:43.311Z,13.25
2019-05-17T23:46:10.380Z,13.28
2019-05-17T23:48:37.470Z,13.24
2019-05-17T23:51:04.510Z,13.48
2019-05-17T23:53:32.775Z,13.20
2019-05-17T23:55:59.834Z,13.33
2019-05-17T23:58:26.958Z,13.26
